createdAt,value
2018-03-11T00:01:58.982Z,75.21
2018-03-11T00:04:26.594Z,75.21
2018-03-11T00:06:54.158Z,75.34
2018-03-11T00:09:21.722Z,75.92
2018-03-11T00:11:49.290Z,76.36
2018-03-11T00:14:16.846Z,76.24
2018-03-11T00:16:44.879Z,76.20
2018-03-11T00:19:12.502Z,76.51
2018-03-11T00:21:40.062Z,75.61
2018-03-11T00:24:07.649Z,75.48
2018-03-11T00:26:35.282Z,75.70
2018-03-11T00:29:02.890Z,75.62
2018-03-11T00:31:30.510Z,75.97
2018-03-11T00:33:58.074Z,76.18
2018-03-11T00:36:25.698Z,76.16
2018-03-11T00:38:53.315Z,76.36
2018-03-11T00:41:20.926Z,76.73
2018-03-11T00:43:48.481Z,76.71
2018-03-11T00:46:16.037Z,77.00
2018-03-11T00:48:43.671Z,77.52
2018-03-11T00:51:11.295Z,77.49
2018-03-11T00:53:38.974Z,77.36
2018-03-11T00:56:06.583Z,77.36
2018-03-11T00:58:34.118Z,77.61
2018-03-11T01:01:01.743Z,77.79
2018-03-11T01:03:29.303Z,78.17
2018-03-11T01:05:56.918Z,78.05
2018-03-11T01:08:24.539Z,78.30
2018-03-11T01:10:52.094Z,78.28
2018-03-11T01:13:19.666Z,78.45
2018-03-11T01:15:47.227Z,78.68
2018-03-11T01:18:14.842Z,78.70
2018-03-11T01:20:42.406Z,78.65
2018-03-11T01:23:09.967Z,79.26
2018-03-11T01:25:37.538Z,78.95
2018-03-11T01:28:05.100Z,79.08
2018-03-11T01:30:32.770Z,78.89
2018-03-11T01:33:00.331Z,78.78
2018-03-11T01:35:27.898Z,78.75
2018-03-11T01:37:55.534Z,78.72
2018-03-11T01:40:23.094Z,78.80
2018-03-11T01:42:50.710Z,79.01
2018-03-11T01:45:18.270Z,79.03
2018-03-11T01:47:45.835Z,79.34
2018-03-11T01:50:13.406Z,79.78
2018-03-11T01:52:52.646Z,79.62
2018-03-11T01:55:20.284Z,79.54
2018-03-11T01:57:47.907Z,79.40
2018-03-11T02:00:15.587Z,79.47
2018-03-11T02:02:43.146Z,79.41
2018-03-11T02:05:10.715Z,79.27
2018-03-11T02:07:38.286Z,79.11
2018-03-11T02:10:05.842Z,79.23
2018-03-11T02:12:33.510Z,79.19
2018-03-11T02:15:01.164Z,79.00
2018-03-11T02:17:28.788Z,78.70
2018-03-11T02:19:56.419Z,78.47
2018-03-11T02:22:23.986Z,78.42
2018-03-11T02:24:51.605Z,78.52
2018-03-11T02:27:19.166Z,78.74
2018-03-11T02:29:46.796Z,79.21
2018-03-11T02:32:14.382Z,79.30
2018-03-11T02:34:41.951Z,78.94
2018-03-11T02:37:09.558Z,78.54
2018-03-11T02:39:37.122Z,78.52
2018-03-11T02:42:04.743Z,78.79
2018-03-11T02:44:32.318Z,78.95
2018-03-11T02:46:59.878Z,78.62
2018-03-11T02:49:27.490Z,78.75
2018-03-11T02:51:55.110Z,78.94
2018-03-11T02:54:22.680Z,78.88
2018-03-11T02:56:50.245Z,79.02
2018-03-11T02:59:17.809Z,79.10
2018-03-11T03:01:45.481Z,79.03
2018-03-11T03:04:13.099Z,79.10
2018-03-11T03:06:40.723Z,79.12
2018-03-11T03:09:08.304Z,78.91
2018-03-11T03:11:35.862Z,78.63
2018-03-11T03:14:03.476Z,78.53
2018-03-11T03:16:31.042Z,78.58
2018-03-11T03:18:58.671Z,78.56
2018-03-11T03:21:26.239Z,78.56
2018-03-11T03:23:53.798Z,78.85
2018-03-11T03:26:21.411Z,78.87
2018-03-11T03:28:48.973Z,78.99
2018-03-11T03:31:16.587Z,79.34
2018-03-11T03:33:44.158Z,79.20
2018-03-11T03:36:11.774Z,79.33
2018-03-11T03:38:39.382Z,79.19
2018-03-11T03:41:06.945Z,79.40
2018-03-11T03:43:34.524Z,79.39
2018-03-11T03:46:02.155Z,79.62
2018-03-11T03:48:29.718Z,79.84
2018-03-11T03:50:57.329Z,80.58
2018-03-11T03:53:24.890Z,81.13
2018-03-11T03:55:52.461Z,81.63
2018-03-11T03:58:20.031Z,81.63
2018-03-11T04:00:47.590Z,81.79
2018-03-11T04:03:15.205Z,82.08
2018-03-11T04:05:42.772Z,82.37
2018-03-11T04:08:10.337Z,82.56
2018-03-11T04:10:37.962Z,82.83
2018-03-11T04:13:05.583Z,83.22
2018-03-11T04:15:33.237Z,83.57
2018-03-11T04:18:00.859Z,83.93
2018-03-11T04:20:28.458Z,84.01
2018-03-11T04:22:56.083Z,84.50
2018-03-11T04:25:23.642Z,84.73
2018-03-11T04:27:51.334Z,84.78
2018-03-11T04:30:18.895Z,85.10
2018-03-11T04:32:46.467Z,85.24
2018-03-11T04:35:14.034Z,85.49
2018-03-11T04:37:41.664Z,85.87
2018-03-11T04:40:09.295Z,86.21
2018-03-11T04:42:36.866Z,86.42
2018-03-11T04:45:04.491Z,86.57
2018-03-11T04:47:32.123Z,86.44
2018-03-11T04:49:59.739Z,86.46
2018-03-11T04:52:27.360Z,86.62
2018-03-11T04:54:54.982Z,86.56
2018-03-11T04:57:22.547Z,87.11
2018-03-11T04:59:50.127Z,86.72
2018-03-11T05:02:17.689Z,86.67
2018-03-11T05:04:45.312Z,86.92
2018-03-11T05:07:12.879Z,86.85
2018-03-11T05:09:40.502Z,86.77
2018-03-11T05:12:08.127Z,86.98
2018-03-11T05:14:35.760Z,87.02
2018-03-11T05:17:03.386Z,86.89
2018-03-11T05:19:30.941Z,86.92
2018-03-11T05:21:58.558Z,86.87
2018-03-11T05:24:26.126Z,86.78
2018-03-11T05:26:53.691Z,87.58
2018-03-11T05:29:21.365Z,84.92
2018-03-11T05:31:48.926Z,83.57
2018-03-11T05:34:16.490Z,82.06
2018-03-11T05:36:44.068Z,78.97
2018-03-11T05:39:11.638Z,76.95
2018-03-11T05:41:40.029Z,75.26
2018-03-11T05:44:07.594Z,72.27
2018-03-11T05:46:35.161Z,69.27
2018-03-11T05:49:02.799Z,68.70
2018-03-11T05:51:30.424Z,67.03
2018-03-11T05:53:58.105Z,64.34
2018-03-11T05:56:25.679Z,62.09
2018-03-11T05:58:53.264Z,60.50
2018-03-11T06:01:20.839Z,58.83
2018-03-11T06:03:48.475Z,57.09
2018-03-11T06:06:16.159Z,54.43
2018-03-11T06:08:43.786Z,53.13
2018-03-11T06:11:11.354Z,53.94
2018-03-11T06:13:38.982Z,55.11
2018-03-11T06:16:06.603Z,54.65
2018-03-11T06:18:34.237Z,52.43
2018-03-11T06:21:01.872Z,52.13
2018-03-11T06:23:29.446Z,52.62
2018-03-11T06:25:57.054Z,53.74
2018-03-11T06:28:24.618Z,55.00
2018-03-11T06:30:52.233Z,55.90
2018-03-11T06:33:19.854Z,57.15
2018-03-11T06:35:47.475Z,57.02
2018-03-11T06:38:17.023Z,57.06
2018-03-11T06:40:44.582Z,56.69
2018-03-11T06:43:12.198Z,55.52
2018-03-11T06:45:39.783Z,53.18
2018-03-11T06:48:07.342Z,52.04
2018-03-11T06:50:34.913Z,51.95
2018-03-11T06:53:02.539Z,52.48
2018-03-11T06:55:30.166Z,48.76
2018-03-11T06:57:57.742Z,48.95
2018-03-11T07:00:25.362Z,48.03
2018-03-11T07:02:52.991Z,48.27
2018-03-11T07:05:20.557Z,48.01
2018-03-11T07:07:48.223Z,47.61
2018-03-11T07:10:15.783Z,48.49
2018-03-11T07:12:43.414Z,47.66
2018-03-11T07:15:11.048Z,48.79
